sensor_id;sensor_type;location;lat;lon;timestamp;pressure;altitude;pressure_sealevel;temperature;humidity
61345;BME280;47216;42.656;23.232;2023-12-04T00:00:02;94353.81;;;0.87;61.01
61345;BME280;47216;42.656;23.232;2023-12-04T00:02:30;94340.66;;;1.04;61.17
61345;BME280;47216;42.656;23.232;2023-12-04T00:04:56;94348.41;;;0.96;61.96
61345;BME280;47216;42.656;23.232;2023-12-04T00:07:23;94354.00;;;1.00;63.16
61345;BME280;47216;42.656;23.232;2023-12-04T00:09:50;94355.38;;;0.88;60.37
61345;BME280;47216;42.656;23.232;2023-12-04T00:12:17;94351.19;;;0.95;58.30
61345;BME280;47216;42.656;23.232;2023-12-04T00:14:43;94359.16;;;1.00;59.16
61345;BME280;47216;42.656;23.232;2023-12-04T00:17:10;94366.50;;;1.03;59.05
61345;BME280;47216;42.656;23.232;2023-12-04T00:19:37;94365.75;;;0.94;58.56
61345;BME280;47216;42.656;23.232;2023-12-04T00:22:04;94373.03;;;0.91;59.04
61345;BME280;47216;42.656;23.232;2023-12-04T00:24:31;94381.25;;;1.01;59.64
61345;BME280;47216;42.656;23.232;2023-12-04T00:26:57;94386.66;;;1.06;59.19
61345;BME280;47216;42.656;23.232;2023-12-04T00:29:24;94385.28;;;1.18;57.70
61345;BME280;47216;42.656;23.232;2023-12-04T00:31:51;94383.03;;;1.15;58.15
61345;BME280;47216;42.656;23.232;2023-12-04T00:34:19;94387.22;;;1.16;59.16
61345;BME280;47216;42.656;23.232;2023-12-04T00:36:46;94393.59;;;1.05;57.91
61345;BME280;47216;42.656;23.232;2023-12-04T00:39:12;94390.28;;;0.97;56.38
61345;BME280;47216;42.656;23.232;2023-12-04T00:41:39;94393.47;;;0.99;56.83
61345;BME280;47216;42.656;23.232;2023-12-04T00:44:06;94390.75;;;1.00;57.05
61345;BME280;47216;42.656;23.232;2023-12-04T00:46:33;94397.66;;;1.15;56.69
61345;BME280;47216;42.656;23.232;2023-12-04T00:48:59;94402.28;;;1.04;56.09
61345;BME280;47216;42.656;23.232;2023-12-04T00:51:28;94403.59;;;1.15;56.56
61345;BME280;47216;42.656;23.232;2023-12-04T00:53:54;94406.34;;;1.14;56.55
61345;BME280;47216;42.656;23.232;2023-12-04T00:56:21;94405.63;;;1.20;55.74
61345;BME280;47216;42.656;23.232;2023-12-04T00:58:48;94407.41;;;1.19;54.50
61345;BME280;47216;42.656;23.232;2023-12-04T01:01:15;94406.09;;;1.23;54.34
61345;BME280;47216;42.656;23.232;2023-12-04T01:03:41;94409.09;;;1.12;55.17
61345;BME280;47216;42.656;23.232;2023-12-04T01:06:10;94416.91;;;1.19;55.23
61345;BME280;47216;42.656;23.232;2023-12-04T01:08:48;94414.69;;;1.16;54.17
61345;BME280;47216;42.656;23.232;2023-12-04T01:11:15;94409.88;;;1.13;53.95
61345;BME280;47216;42.656;23.232;2023-12-04T01:13:41;94422.03;;;1.04;54.87
61345;BME280;47216;42.656;23.232;2023-12-04T01:16:08;94415.28;;;1.03;55.38
61345;BME280;47216;42.656;23.232;2023-12-04T01:18:35;94419.16;;;0.99;55.95
61345;BME280;47216;42.656;23.232;2023-12-04T01:21:02;94411.97;;;0.94;56.06
61345;BME280;47216;42.656;23.232;2023-12-04T01:23:29;94410.13;;;1.03;56.11
61345;BME280;47216;42.656;23.232;2023-12-04T01:25:57;94413.13;;;0.92;57.00
61345;BME280;47216;42.656;23.232;2023-12-04T01:28:24;94404.59;;;0.76;56.18
61345;BME280;47216;42.656;23.232;2023-12-04T01:30:51;94407.78;;;0.78;56.64
61345;BME280;47216;42.656;23.232;2023-12-04T01:33:18;94410.97;;;0.80;56.53
61345;BME280;47216;42.656;23.232;2023-12-04T01:35:44;94406.72;;;0.88;56.78
61345;BME280;47216;42.656;23.232;2023-12-04T01:38:11;94404.72;;;0.98;55.49
61345;BME280;47216;42.656;23.232;2023-12-04T01:40:38;94413.88;;;0.77;55.96
61345;BME280;47216;42.656;23.232;2023-12-04T01:43:08;94415.66;;;0.77;55.77
61345;BME280;47216;42.656;23.232;2023-12-04T01:45:34;94418.34;;;0.83;55.43
61345;BME280;47216;42.656;23.232;2023-12-04T01:48:02;94409.59;;;0.93;55.54
61345;BME280;47216;42.656;23.232;2023-12-04T01:50:31;94413.06;;;1.00;55.47
61345;BME280;47216;42.656;23.232;2023-12-04T01:52:58;94420.91;;;0.83;55.00
61345;BME280;47216;42.656;23.232;2023-12-04T01:55:25;94424.09;;;0.86;54.66
61345;BME280;47216;42.656;23.232;2023-12-04T01:57:52;94428.13;;;0.80;54.10
61345;BME280;47216;42.656;23.232;2023-12-04T02:00:23;94431.84;;;0.77;54.60
61345;BME280;47216;42.656;23.232;2023-12-04T02:02:50;94431.63;;;0.64;55.34
61345;BME280;47216;42.656;23.232;2023-12-04T02:05:18;94430.72;;;0.80;55.71
61345;BME280;47216;42.656;23.232;2023-12-04T02:07:46;94433.09;;;0.81;55.93
61345;BME280;47216;42.656;23.232;2023-12-04T02:10:12;94441.75;;;0.80;56.27
61345;BME280;47216;42.656;23.232;2023-12-04T02:12:39;94433.16;;;0.73;56.27
61345;BME280;47216;42.656;23.232;2023-12-04T02:15:07;94446.00;;;0.73;57.05
61345;BME280;47216;42.656;23.232;2023-12-04T02:17:36;94440.59;;;0.68;56.88
61345;BME280;47216;42.656;23.232;2023-12-04T02:20:04;94456.50;;;0.63;56.63
61345;BME280;47216;42.656;23.232;2023-12-04T02:22:31;94459.50;;;0.44;57.61
61345;BME280;47216;42.656;23.232;2023-12-04T02:24:59;94452.31;;;0.39;56.40
61345;BME280;47216;42.656;23.232;2023-12-04T02:27:28;94449.75;;;0.39;56.67
61345;BME280;47216;42.656;23.232;2023-12-04T02:29:58;94461.75;;;0.39;56.32
61345;BME280;47216;42.656;23.232;2023-12-04T02:32:28;94458.16;;;0.25;56.12
61345;BME280;47216;42.656;23.232;2023-12-04T02:34:56;94455.84;;;0.07;55.78
61345;BME280;47216;42.656;23.232;2023-12-04T02:37:25;94460.13;;;0.15;55.65
61345;BME280;47216;42.656;23.232;2023-12-04T02:39:52;94461.91;;;0.14;55.34
61345;BME280;47216;42.656;23.232;2023-12-04T02:42:22;94464.38;;;-0.01;54.96
61345;BME280;47216;42.656;23.232;2023-12-04T02:44:50;94455.72;;;0.01;55.26
61345;BME280;47216;42.656;23.232;2023-12-04T02:47:17;94465.94;;;0.09;56.30
61345;BME280;47216;42.656;23.232;2023-12-04T02:49:44;94461.66;;;0.01;56.46
61345;BME280;47216;42.656;23.232;2023-12-04T02:52:11;94461.31;;;0.04;57.26
61345;BME280;47216;42.656;23.232;2023-12-04T02:54:37;94453.72;;;0.19;56.67
61345;BME280;47216;42.656;23.232;2023-12-04T02:57:04;94469.22;;;0.26;56.12
61345;BME280;47216;42.656;23.232;2023-12-04T02:59:32;94458.50;;;0.22;57.40
61345;BME280;47216;42.656;23.232;2023-12-04T03:01:59;94458.84;;;0.19;56.41
61345;BME280;47216;42.656;23.232;2023-12-04T03:04:27;94465.22;;;0.23;56.93
61345;BME280;47216;42.656;23.232;2023-12-04T03:06:54;94460.78;;;0.17;57.04
61345;BME280;47216;42.656;23.232;2023-12-04T03:09:21;94456.31;;;0.11;56.96
61345;BME280;47216;42.656;23.232;2023-12-04T03:11:48;94460.91;;;0.24;56.94
61345;BME280;47216;42.656;23.232;2023-12-04T03:14:15;94454.56;;;0.34;56.77
61345;BME280;47216;42.656;23.232;2023-12-04T03:16:43;94453.38;;;0.22;56.59
61345;BME280;47216;42.656;23.232;2023-12-04T03:19:09;94463.63;;;0.22;55.95
61345;BME280;47216;42.656;23.232;2023-12-04T03:21:36;94459.47;;;0.21;55.85
61345;BME280;47216;42.656;23.232;2023-12-04T03:24:04;94455.31;;;0.20;56.00
61345;BME280;47216;42.656;23.232;2023-12-04T03:26:30;94455.72;;;0.32;56.32
61345;BME280;47216;42.656;23.232;2023-12-04T03:28:57;94457.38;;;0.48;56.38
61345;BME280;47216;42.656;23.232;2023-12-04T03:31:25;94461.47;;;0.65;55.64
61345;BME280;47216;42.656;23.232;2023-12-04T03:33:55;94457.88;;;0.74;55.05
61345;BME280;47216;42.656;23.232;2023-12-04T03:36:21;94465.16;;;0.86;55.56
61345;BME280;47216;42.656;23.232;2023-12-04T03:38:48;94467.59;;;1.02;55.12
61345;BME280;47216;42.656;23.232;2023-12-04T03:41:15;94466.84;;;1.16;55.34
61345;BME280;47216;42.656;23.232;2023-12-04T03:43:42;94478.13;;;1.30;54.61
61345;BME280;47216;42.656;23.232;2023-12-04T03:46:09;94470.53;;;1.37;54.34
61345;BME280;47216;42.656;23.232;2023-12-04T03:48:36;94469.91;;;1.50;54.06
61345;BME280;47216;42.656;23.232;2023-12-04T03:51:05;94464.59;;;1.51;53.68
61345;BME280;47216;42.656;23.232;2023-12-04T03:53:31;94468.38;;;1.40;54.01
61345;BME280;47216;42.656;23.232;2023-12-04T03:55:58;94474.34;;;1.18;54.58
61345;BME280;47216;42.656;23.232;2023-12-04T03:58:25;94467.91;;;1.22;54.48
61345;BME280;47216;42.656;23.232;2023-12-04T04:00:52;94476.13;;;1.17;54.20
61345;BME280;47216;42.656;23.232;2023-12-04T04:03:19;94477.81;;;0.87;54.12
61345;BME280;47216;42.656;23.232;2023-12-04T04:05:45;94470.75;;;0.66;55.23
61345;BME280;47216;42.656;23.232;2023-12-04T04:08:14;94475.19;;;0.72;55.69
61345;BME280;47216;42.656;23.232;2023-12-04T04:10:40;94472.88;;;0.62;55.41
61345;BME280;47216;42.656;23.232;2023-12-04T04:13:07;94472.56;;;0.57;55.69
61345;BME280;47216;42.656;23.232;2023-12-04T04:15:34;94473.94;;;0.68;55.24
61345;BME280;47216;42.656;23.232;2023-12-04T04:18:00;94476.53;;;0.60;54.82
61345;BME280;47216;42.656;23.232;2023-12-04T04:20:27;94476.91;;;0.57;54.16
61345;BME280;47216;42.656;23.232;2023-12-04T04:22:54;94483.03;;;0.48;54.28
61345;BME280;47216;42.656;23.232;2023-12-04T04:25:22;94480.41;;;0.33;55.39
61345;BME280;47216;42.656;23.232;2023-12-04T04:27:49;94483.97;;;0.24;55.58
61345;BME280;47216;42.656;23.232;2023-12-04T04:30:16;94492.53;;;0.08;55.82
61345;BME280;47216;42.656;23.232;2023-12-04T04:32:43;94494.06;;;-0.14;55.66
61345;BME280;47216;42.656;23.232;2023-12-04T04:35:10;94490.84;;;-0.16;56.18
61345;BME280;47216;42.656;23.232;2023-12-04T04:37:37;94485.88;;;-0.10;56.30
61345;BME280;47216;42.656;23.232;2023-12-04T04:40:05;94486.97;;;-0.04;57.09
61345;BME280;47216;42.656;23.232;2023-12-04T04:42:33;94485.88;;;-0.10;57.83
61345;BME280;47216;42.656;23.232;2023-12-04T04:45:00;94494.69;;;-0.12;59.09
61345;BME280;47216;42.656;23.232;2023-12-04T04:47:27;94498.66;;;-0.02;59.19
61345;BME280;47216;42.656;23.232;2023-12-04T04:49:53;94493.88;;;-0.05;59.80
61345;BME280;47216;42.656;23.232;2023-12-04T04:52:20;94503.81;;;-0.10;59.89
61345;BME280;47216;42.656;23.232;2023-12-04T04:54:47;94509.13;;;-0.11;60.42
61345;BME280;47216;42.656;23.232;2023-12-04T04:57:14;94507.19;;;-0.09;60.51
61345;BME280;47216;42.656;23.232;2023-12-04T04:59:42;94507.50;;;-0.12;60.62
61345;BME280;47216;42.656;23.232;2023-12-04T05:02:09;94506.38;;;-0.10;58.88
61345;BME280;47216;42.656;23.232;2023-12-04T05:04:36;94514.84;;;-0.01;57.64
61345;BME280;47216;42.656;23.232;2023-12-04T05:07:03;94512.91;;;0.01;57.59
61345;BME280;47216;42.656;23.232;2023-12-04T05:09:29;94512.91;;;0.01;58.49
61345;BME280;47216;42.656;23.232;2023-12-04T05:11:56;94522.38;;;0.01;58.77
61345;BME280;47216;42.656;23.232;2023-12-04T05:14:23;94519.13;;;0.15;58.41
61345;BME280;47216;42.656;23.232;2023-12-04T05:16:51;94527.44;;;0.17;58.15
61345;BME280;47216;42.656;23.232;2023-12-04T05:19:18;94525.38;;;0.12;57.96
61345;BME280;47216;42.656;23.232;2023-12-04T05:21:45;94520.69;;;0.24;57.03
61345;BME280;47216;42.656;23.232;2023-12-04T05:24:12;94525.75;;;0.32;58.36
61345;BME280;47216;42.656;23.232;2023-12-04T05:26:38;94524.16;;;0.31;57.03
61345;BME280;47216;42.656;23.232;2023-12-04T05:29:05;94522.59;;;0.30;57.26
61345;BME280;47216;42.656;23.232;2023-12-04T05:31:32;94521.31;;;0.26;57.11
61345;BME280;47216;42.656;23.232;2023-12-04T05:34:00;94518.63;;;0.51;56.89
61345;BME280;47216;42.656;23.232;2023-12-04T05:36:27;94528.56;;;0.54;57.63
61345;BME280;47216;42.656;23.232;2023-12-04T05:38:54;94530.91;;;0.63;56.86
61345;BME280;47216;42.656;23.232;2023-12-04T05:41:20;94537.81;;;0.63;56.63
61345;BME280;47216;42.656;23.232;2023-12-04T05:43:47;94537.19;;;0.61;56.70
61345;BME280;47216;42.656;23.232;2023-12-04T05:46:14;94532.41;;;0.50;57.32
61345;BME280;47216;42.656;23.232;2023-12-04T05:48:41;94534.31;;;0.56;56.54
61345;BME280;47216;42.656;23.232;2023-12-04T05:51:09;94527.88;;;0.60;57.47
61345;BME280;47216;42.656;23.232;2023-12-04T05:53:36;94534.91;;;0.66;58.12
61345;BME280;47216;42.656;23.232;2023-12-04T05:56:05;94529.94;;;0.65;56.31
61345;BME280;47216;42.656;23.232;2023-12-04T05:58:32;94539.09;;;0.67;56.13
61345;BME280;47216;42.656;23.232;2023-12-04T06:00:58;94545.81;;;0.68;56.92
61345;BME280;47216;42.656;23.232;2023-12-04T06:03:25;94546.44;;;0.70;56.95
61345;BME280;47216;42.656;23.232;2023-12-04T06:05:52;94548.72;;;0.65;56.88
61345;BME280;47216;42.656;23.232;2023-12-04T06:08:20;94540.31;;;0.71;55.45
61345;BME280;47216;42.656;23.232;2023-12-04T06:10:47;94548.53;;;0.67;55.51
61345;BME280;47216;42.656;23.232;2023-12-04T06:13:14;94552.50;;;0.69;56.29
61345;BME280;47216;42.656;23.232;2023-12-04T06:15:41;94544.22;;;0.67;57.13
61345;BME280;47216;42.656;23.232;2023-12-04T06:18:07;94547.28;;;0.62;57.76
61345;BME280;47216;42.656;23.232;2023-12-04T06:20:34;94548.41;;;0.60;57.07
61345;BME280;47216;42.656;23.232;2023-12-04T06:23:01;94550.59;;;0.71;57.48
61345;BME280;47216;42.656;23.232;2023-12-04T06:25:30;94553.50;;;0.68;55.78
61345;BME280;47216;42.656;23.232;2023-12-04T06:28:00;94559.31;;;0.85;54.08
61345;BME280;47216;42.656;23.232;2023-12-04T06:30:27;94558.81;;;0.90;56.13
61345;BME280;47216;42.656;23.232;2023-12-04T06:32:55;94565.28;;;0.86;55.89
61345;BME280;47216;42.656;23.232;2023-12-04T06:35:22;94561.47;;;0.73;54.83
61345;BME280;47216;42.656;23.232;2023-12-04T06:37:50;94566.06;;;0.55;54.48
61345;BME280;47216;42.656;23.232;2023-12-04T06:40:20;94580.41;;;0.41;54.08
61345;BME280;47216;42.656;23.232;2023-12-04T06:42:50;94582.19;;;0.32;53.83
61345;BME280;47216;42.656;23.232;2023-12-04T06:45:17;94575.75;;;0.36;54.42
61345;BME280;47216;42.656;23.232;2023-12-04T06:47:45;94585.22;;;0.44;53.30
61345;BME280;47216;42.656;23.232;2023-12-04T06:50:12;94589.91;;;0.24;53.67
61345;BME280;47216;42.656;23.232;2023-12-04T06:52:39;94600.97;;;0.25;53.53
61345;BME280;47216;42.656;23.232;2023-12-04T06:55:06;94591.78;;;0.38;54.25
61345;BME280;47216;42.656;23.232;2023-12-04T06:57:33;94596.56;;;0.41;54.26
61345;BME280;47216;42.656;23.232;2023-12-04T07:00:02;94598.47;;;0.56;54.96
61345;BME280;47216;42.656;23.232;2023-12-04T07:02:29;94591.00;;;0.69;54.44
61345;BME280;47216;42.656;23.232;2023-12-04T07:04:56;94586.50;;;0.71;54.60
61345;BME280;47216;42.656;23.232;2023-12-04T07:07:23;94600.38;;;0.93;54.84
61345;BME280;47216;42.656;23.232;2023-12-04T07:09:50;94600.03;;;0.96;54.36
61345;BME280;47216;42.656;23.232;2023-12-04T07:12:17;94600.53;;;0.92;53.88
61345;BME280;47216;42.656;23.232;2023-12-04T07:14:44;94596.44;;;1.05;53.37
61345;BME280;47216;42.656;23.232;2023-12-04T07:17:12;94594.84;;;1.04;53.95
61345;BME280;47216;42.656;23.232;2023-12-04T07:19:40;94594.72;;;0.98;53.16
61345;BME280;47216;42.656;23.232;2023-12-04T07:22:07;94601.69;;;1.12;53.05
61345;BME280;47216;42.656;23.232;2023-12-04T07:24:34;94611.31;;;1.18;53.00
61345;BME280;47216;42.656;23.232;2023-12-04T07:27:01;94604.63;;;1.09;53.27
61345;BME280;47216;42.656;23.232;2023-12-04T07:29:28;94605.28;;;1.03;52.78
61345;BME280;47216;42.656;23.232;2023-12-04T07:31:54;94609.53;;;1.19;53.62
61345;BME280;47216;42.656;23.232;2023-12-04T07:34:23;94607.88;;;1.26;53.67
61345;BME280;47216;42.656;23.232;2023-12-04T07:36:49;94603.13;;;1.15;53.74
61345;BME280;47216;42.656;23.232;2023-12-04T07:39:17;94608.38;;;1.21;53.89
61345;BME280;47216;42.656;23.232;2023-12-04T07:41:43;94608.50;;;0.97;52.69
61345;BME280;47216;42.656;23.232;2023-12-04T07:44:10;94600.09;;;0.80;53.53
61345;BME280;47216;42.656;23.232;2023-12-04T07:46:37;94592.88;;;0.83;54.32
61345;BME280;47216;42.656;23.232;2023-12-04T07:49:04;94600.81;;;0.97;54.03
61345;BME280;47216;42.656;23.232;2023-12-04T07:51:32;94595.25;;;1.16;53.46
61345;BME280;47216;42.656;23.232;2023-12-04T07:53:59;94595.81;;;1.26;53.30
61345;BME280;47216;42.656;23.232;2023-12-04T07:56:25;94598.47;;;1.18;52.84
61345;BME280;47216;42.656;23.232;2023-12-04T07:58:52;94599.50;;;1.01;52.72
61345;BME280;47216;42.656;23.232;2023-12-04T08:01:19;94605.63;;;1.00;53.87
61345;BME280;47216;42.656;23.232;2023-12-04T08:03:46;94617.56;;;0.84;53.15
61345;BME280;47216;42.656;23.232;2023-12-04T08:06:13;94620.06;;;0.70;53.94
61345;BME280;47216;42.656;23.232;2023-12-04T08:08:42;94620.19;;;0.76;52.98
61345;BME280;47216;42.656;23.232;2023-12-04T08:11:09;94628.47;;;0.87;54.03
61345;BME280;47216;42.656;23.232;2023-12-04T08:13:38;94623.06;;;0.81;54.29
61345;BME280;47216;42.656;23.232;2023-12-04T08:16:12;94629.81;;;1.05;54.19
61345;BME280;47216;42.656;23.232;2023-12-04T08:18:39;94619.09;;;1.02;54.10
61345;BME280;47216;42.656;23.232;2023-12-04T08:21:06;94621.47;;;1.03;53.22
61345;BME280;47216;42.656;23.232;2023-12-04T08:23:33;94622.84;;;0.91;52.41
61345;BME280;47216;42.656;23.232;2023-12-04T08:26:01;94617.53;;;0.93;53.28
61345;BME280;47216;42.656;23.232;2023-12-04T08:28:28;94622.91;;;1.06;53.44
61345;BME280;47216;42.656;23.232;2023-12-04T08:30:55;94628.69;;;1.08;52.87
61345;BME280;47216;42.656;23.232;2023-12-04T08:33:21;94625.72;;;1.19;52.13
61345;BME280;47216;42.656;23.232;2023-12-04T08:35:48;94619.84;;;1.11;51.69
61345;BME280;47216;42.656;23.232;2023-12-04T08:38:16;94628.91;;;0.98;51.70
61345;BME280;47216;42.656;23.232;2023-12-04T08:40:43;94623.91;;;0.97;52.23
61345;BME280;47216;42.656;23.232;2023-12-04T08:43:11;94619.78;;;0.96;52.27
61345;BME280;47216;42.656;23.232;2023-12-04T08:45:38;94622.09;;;1.14;52.41
61345;BME280;47216;42.656;23.232;2023-12-04T08:48:05;94611.81;;;1.37;52.49
61345;BME280;47216;42.656;23.232;2023-12-04T08:50:31;94615.94;;;1.46;51.67
61345;BME280;47216;42.656;23.232;2023-12-04T08:52:58;94611.69;;;1.53;51.55
61345;BME280;47216;42.656;23.232;2023-12-04T08:55:25;94619.00;;;1.64;49.19
61345;BME280;47216;42.656;23.232;2023-12-04T08:57:52;94611.13;;;1.43;48.56
61345;BME280;47216;42.656;23.232;2023-12-04T09:00:21;94599.13;;;1.35;49.79
61345;BME280;47216;42.656;23.232;2023-12-04T09:02:48;94597.75;;;1.47;50.37
61345;BME280;47216;42.656;23.232;2023-12-04T09:05:15;94597.41;;;1.74;49.49
61345;BME280;47216;42.656;23.232;2023-12-04T09:07:41;94595.22;;;1.85;49.17
61345;BME280;47216;42.656;23.232;2023-12-04T09:10:08;94586.44;;;2.09;49.95
61345;BME280;47216;42.656;23.232;2023-12-04T09:12:35;94581.31;;;2.24;49.98
61345;BME280;47216;42.656;23.232;2023-12-04T09:15:04;94579.34;;;2.41;49.44
61345;BME280;47216;42.656;23.232;2023-12-04T09:17:32;94589.19;;;2.52;48.33
61345;BME280;47216;42.656;23.232;2023-12-04T09:19:59;94586.72;;;2.44;47.93
61345;BME280;47216;42.656;23.232;2023-12-04T09:22:26;94580.78;;;2.44;48.29
61345;BME280;47216;42.656;23.232;2023-12-04T09:24:54;94571.72;;;2.48;48.48
61345;BME280;47216;42.656;23.232;2023-12-04T09:27:22;94570.09;;;2.62;48.85
61345;BME280;47216;42.656;23.232;2023-12-04T09:29:49;94567.50;;;2.77;49.75
61345;BME280;47216;42.656;23.232;2023-12-04T09:32:15;94565.63;;;2.85;49.55
61345;BME280;47216;42.656;23.232;2023-12-04T09:34:44;94565.75;;;2.99;49.69
61345;BME280;47216;42.656;23.232;2023-12-04T09:37:11;94562.72;;;3.10;47.92
61345;BME280;47216;42.656;23.232;2023-12-04T09:39:38;94567.47;;;2.91;47.30
61345;BME280;47216;42.656;23.232;2023-12-04T09:42:06;94568.34;;;2.84;48.06
61345;BME280;47216;42.656;23.232;2023-12-04T09:44:34;94572.22;;;2.73;48.26
61345;BME280;47216;42.656;23.232;2023-12-04T09:47:03;94558.03;;;2.99;48.78
61345;BME280;47216;42.656;23.232;2023-12-04T09:49:31;94556.06;;;3.22;47.88
61345;BME280;47216;42.656;23.232;2023-12-04T09:52:01;94563.81;;;3.22;48.61
61345;BME280;47216;42.656;23.232;2023-12-04T09:54:29;94551.03;;;3.14;47.69
61345;BME280;47216;42.656;23.232;2023-12-04T09:56:56;94544.22;;;3.28;47.24
61345;BME280;47216;42.656;23.232;2023-12-04T09:59:24;94540.38;;;3.17;47.53
61345;BME280;47216;42.656;23.232;2023-12-04T10:01:51;94540.38;;;3.17;48.42
61345;BME280;47216;42.656;23.232;2023-12-04T10:04:19;94542.69;;;3.33;48.55
61345;BME280;47216;42.656;23.232;2023-12-04T10:06:49;94538.50;;;3.54;48.51
61345;BME280;47216;42.656;23.232;2023-12-04T10:09:18;94546.09;;;3.62;47.98
61345;BME280;47216;42.656;23.232;2023-12-04T10:11:47;94540.44;;;3.73;48.78
61345;BME280;47216;42.656;23.232;2023-12-04T10:14:16;94538.28;;;3.77;48.42
61345;BME280;47216;42.656;23.232;2023-12-04T10:16:43;94551.19;;;3.77;48.45
61345;BME280;47216;42.656;23.232;2023-12-04T10:19:18;94553.75;;;3.77;48.67
61345;BME280;47216;42.656;23.232;2023-12-04T10:21:48;94545.88;;;3.85;48.13
61345;BME280;47216;42.656;23.232;2023-12-04T10:24:30;94544.13;;;3.92;48.61
61345;BME280;47216;42.656;23.232;2023-12-04T10:26:58;94543.56;;;3.97;48.90
61345;BME280;47216;42.656;23.232;2023-12-04T10:29:27;94542.47;;;4.13;47.99
61345;BME280;47216;42.656;23.232;2023-12-04T10:31:55;94526.81;;;4.14;47.58
61345;BME280;47216;42.656;23.232;2023-12-04T10:34:22;94527.44;;;4.23;46.47
61345;BME280;47216;42.656;23.232;2023-12-04T10:36:51;94520.69;;;4.22;46.69
61345;BME280;47216;42.656;23.232;2023-12-04T10:39:18;94514.72;;;4.21;46.68
61345;BME280;47216;42.656;23.232;2023-12-04T10:41:58;94514.00;;;4.41;47.42
61345;BME280;47216;42.656;23.232;2023-12-04T10:44:26;94504.13;;;4.51;47.77
61345;BME280;47216;42.656;23.232;2023-12-04T10:46:54;94509.09;;;4.46;47.48
61345;BME280;47216;42.656;23.232;2023-12-04T10:49:25;94504.50;;;4.41;47.24
61345;BME280;47216;42.656;23.232;2023-12-04T10:51:55;94514.00;;;4.41;47.89
61345;BME280;47216;42.656;23.232;2023-12-04T10:54:25;94510.09;;;4.52;47.82
61345;BME280;47216;42.656;23.232;2023-12-04T10:57:00;94514.72;;;4.63;46.81
61345;BME280;47216;42.656;23.232;2023-12-04T10:59:32;94516.25;;;4.57;47.92
61345;BME280;47216;42.656;23.232;2023-12-04T11:02:05;94526.22;;;4.60;46.96
61345;BME280;47216;42.656;23.232;2023-12-04T11:04:36;94517.19;;;4.43;48.09
61345;BME280;47216;42.656;23.232;2023-12-04T11:07:05;94506.34;;;4.61;47.60
61345;BME280;47216;42.656;23.232;2023-12-04T11:09:35;94516.50;;;4.62;47.43
61345;BME280;47216;42.656;23.232;2023-12-04T11:12:06;94509.72;;;4.61;47.84
61345;BME280;47216;42.656;23.232;2023-12-04T11:14:40;94500.81;;;4.71;47.46
61345;BME280;47216;42.656;23.232;2023-12-04T11:17:12;94504.81;;;4.80;47.52
61345;BME280;47216;42.656;23.232;2023-12-04T11:19:47;94510.38;;;4.77;47.83
61345;BME280;47216;42.656;23.232;2023-12-04T11:22:17;94505.59;;;4.74;46.92
61345;BME280;47216;42.656;23.232;2023-12-04T11:24:46;94500.84;;;4.77;47.89
61345;BME280;47216;42.656;23.232;2023-12-04T11:27:16;94498.28;;;4.84;48.33
61345;BME280;47216;42.656;23.232;2023-12-04T11:29:44;94490.72;;;4.89;46.83
61345;BME280;47216;42.656;23.232;2023-12-04T11:32:14;94490.34;;;4.92;46.65
61345;BME280;47216;42.656;23.232;2023-12-04T11:34:47;94496.47;;;4.84;45.71
61345;BME280;47216;42.656;23.232;2023-12-04T11:37:14;94489.13;;;4.81;47.04
61345;BME280;47216;42.656;23.232;2023-12-04T11:39:41;94487.94;;;4.84;46.87
61345;BME280;47216;42.656;23.232;2023-12-04T11:42:09;94482.59;;;4.92;47.74
61345;BME280;47216;42.656;23.232;2023-12-04T11:44:40;94469.44;;;4.87;48.19
61345;BME280;47216;42.656;23.232;2023-12-04T11:47:08;94464.88;;;4.89;47.22
61345;BME280;47216;42.656;23.232;2023-12-04T11:49:34;94470.25;;;4.94;46.68
61345;BME280;47216;42.656;23.232;2023-12-04T11:52:02;94467.28;;;4.97;46.04
61345;BME280;47216;42.656;23.232;2023-12-04T11:54:56;94460.75;;;5.01;46.91
61345;BME280;47216;42.656;23.232;2023-12-04T11:57:24;94464.31;;;5.14;46.03
61345;BME280;47216;42.656;23.232;2023-12-04T12:00:08;94453.78;;;5.09;45.62
61345;BME280;47216;42.656;23.232;2023-12-04T12:02:35;94452.19;;;5.08;46.17
61345;BME280;47216;42.656;23.232;2023-12-04T12:05:02;94458.56;;;5.12;46.19
61345;BME280;47216;42.656;23.232;2023-12-04T12:07:28;94452.59;;;5.04;46.74
61345;BME280;47216;42.656;23.232;2023-12-04T12:09:55;94454.38;;;5.11;46.06
61345;BME280;47216;42.656;23.232;2023-12-04T12:12:22;94449.41;;;5.16;46.21
61345;BME280;47216;42.656;23.232;2023-12-04T12:14:49;94451.78;;;5.17;46.22
61345;BME280;47216;42.656;23.232;2023-12-04T12:17:17;94443.66;;;5.20;45.86
61345;BME280;47216;42.656;23.232;2023-12-04T12:19:45;94436.88;;;5.13;45.43
61345;BME280;47216;42.656;23.232;2023-12-04T12:22:11;94434.50;;;5.04;45.41
61345;BME280;47216;42.656;23.232;2023-12-04T12:24:39;94437.47;;;5.08;46.43
61345;BME280;47216;42.656;23.232;2023-12-04T12:27:06;94436.69;;;5.21;46.58
61345;BME280;47216;42.656;23.232;2023-12-04T12:29:32;94434.69;;;5.30;46.35
61345;BME280;47216;42.656;23.232;2023-12-04T12:31:59;94427.13;;;5.28;46.06
61345;BME280;47216;42.656;23.232;2023-12-04T12:34:27;94426.34;;;5.34;45.81
61345;BME280;47216;42.656;23.232;2023-12-04T12:36:54;94428.72;;;5.42;45.51
61345;BME280;47216;42.656;23.232;2023-12-04T12:39:21;94424.13;;;5.44;45.99
61345;BME280;47216;42.656;23.232;2023-12-04T12:41:48;94425.13;;;5.50;45.54
61345;BME280;47216;42.656;23.232;2023-12-04T12:44:16;94413.59;;;5.53;45.70
61345;BME280;47216;42.656;23.232;2023-12-04T12:46:47;94413.19;;;5.56;45.48
61345;BME280;47216;42.656;23.232;2023-12-04T12:49:15;94411.19;;;5.58;45.64
61345;BME280;47216;42.656;23.232;2023-12-04T12:51:44;94422.72;;;5.62;45.98
61345;BME280;47216;42.656;23.232;2023-12-04T12:54:11;94420.94;;;5.49;45.01
61345;BME280;47216;42.656;23.232;2023-12-04T12:56:38;94417.75;;;5.54;45.38
61345;BME280;47216;42.656;23.232;2023-12-04T12:59:05;94411.97;;;5.58;44.85
61345;BME280;47216;42.656;23.232;2023-12-04T13:01:32;94400.84;;;5.51;45.45